createdAt,value
2019-04-06T00:01:27.775Z,99.90
2019-04-06T00:03:56.173Z,99.90
2019-04-06T00:06:24.551Z,99.90
2019-04-06T00:08:52.935Z,99.90
2019-04-06T00:11:21.319Z,99.90
2019-04-06T00:13:49.708Z,99.90
2019-04-06T00:16:18.149Z,99.90
2019-04-06T00:18:46.540Z,99.90
2019-04-06T00:21:14.920Z,99.90
2019-04-06T00:23:43.303Z,99.90
2019-04-06T00:26:11.697Z,99.90
2019-04-06T00:28:40.070Z,99.90
2019-04-06T00:31:13.053Z,99.90
2019-04-06T00:33:41.499Z,99.90
2019-04-06T00:36:09.875Z,99.90
2019-04-06T00:38:38.272Z,99.90
2019-04-06T00:41:06.648Z,99.90
2019-04-06T00:43:35.036Z,99.90
2019-04-06T00:46:03.489Z,99.90
2019-04-06T00:48:31.895Z,99.90
2019-04-06T00:51:00.275Z,99.90
2019-04-06T00:53:28.667Z,99.90
2019-04-06T00:55:57.111Z,99.90
2019-04-06T00:58:25.568Z,99.90
2019-04-06T01:00:54.027Z,99.90
2019-04-06T01:03:22.427Z,99.90
2019-04-06T01:05:50.815Z,99.90
2019-04-06T01:08:19.195Z,99.90
2019-04-06T01:10:47.576Z,99.90
2019-04-06T01:13:15.963Z,99.90
2019-04-06T01:15:44.418Z,99.90
2019-04-06T01:18:12.812Z,99.90
2019-04-06T01:20:41.197Z,99.90
2019-04-06T01:23:09.599Z,99.90
2019-04-06T01:25:37.980Z,99.90
2019-04-06T01:28:06.371Z,99.90
2019-04-06T01:30:34.769Z,99.90
2019-04-06T01:33:03.136Z,99.90
2019-04-06T01:35:31.531Z,99.90
2019-04-06T01:37:59.900Z,99.90
2019-04-06T01:40:28.283Z,99.90
2019-04-06T01:42:56.717Z,99.90
2019-04-06T01:45:25.091Z,99.90
2019-04-06T01:47:53.844Z,99.90
2019-04-06T01:50:22.241Z,99.90
2019-04-06T01:52:50.615Z,99.90
2019-04-06T01:55:19.012Z,99.90
2019-04-06T01:57:47.404Z,99.90
2019-04-06T02:00:15.985Z,99.90
2019-04-06T02:02:46.033Z,99.90
2019-04-06T02:05:14.479Z,99.90
2019-04-06T02:07:42.859Z,99.90
2019-04-06T02:10:11.888Z,99.90
2019-04-06T02:12:40.267Z,99.90
2019-04-06T02:15:08.796Z,99.90
2019-04-06T02:17:37.413Z,99.90
2019-04-06T02:20:06.563Z,99.90
2019-04-06T02:22:34.941Z,99.90
2019-04-06T02:25:03.599Z,99.90
2019-04-06T02:27:31.983Z,99.90
2019-04-06T02:30:18.583Z,99.90
2019-04-06T02:33:05.102Z,99.90
2019-04-06T02:35:44.043Z,99.90
2019-04-06T02:38:14.080Z,99.90
2019-04-06T02:41:03.771Z,99.90
2019-04-06T02:43:34.069Z,99.90
2019-04-06T02:46:02.528Z,99.90
2019-04-06T02:48:30.925Z,99.90
2019-04-06T02:50:59.309Z,99.90
2019-04-06T02:53:27.761Z,99.90
2019-04-06T02:55:56.166Z,99.90
2019-04-06T02:58:24.934Z,99.90
2019-04-06T03:00:53.517Z,99.90
2019-04-06T03:03:21.905Z,99.90
2019-04-06T03:05:50.299Z,99.90
2019-04-06T03:08:18.678Z,99.90
2019-04-06T03:10:47.077Z,99.90
2019-04-06T03:13:15.744Z,99.90
2019-04-06T03:15:44.204Z,99.90
2019-04-06T03:18:12.584Z,99.90
2019-04-06T03:20:40.980Z,99.90
2019-04-06T03:23:09.607Z,99.90
2019-04-06T03:25:38.048Z,99.90
2019-04-06T03:28:06.533Z,99.90
2019-04-06T03:30:34.920Z,99.90
2019-04-06T03:33:03.699Z,99.90
2019-04-06T03:35:32.276Z,99.90
2019-04-06T03:38:00.723Z,99.90
2019-04-06T03:40:29.127Z,99.90
2019-04-06T03:42:57.500Z,99.90
2019-04-06T03:45:25.891Z,99.90
2019-04-06T03:47:54.759Z,99.90
2019-04-06T03:50:23.273Z,99.90
2019-04-06T03:52:51.913Z,99.90
2019-04-06T03:55:20.302Z,99.90
2019-04-06T03:57:48.694Z,99.90
2019-04-06T04:00:17.320Z,99.90
2019-04-06T04:02:45.704Z,99.90
2019-04-06T04:05:14.100Z,99.90
2019-04-06T04:07:42.487Z,99.90
2019-04-06T04:10:14.794Z,99.90
2019-04-06T04:12:43.204Z,99.90
2019-04-06T04:15:11.743Z,99.90
2019-04-06T04:17:40.120Z,99.90
2019-04-06T04:20:08.727Z,99.90
2019-04-06T04:22:37.123Z,99.90
2019-04-06T04:25:06.243Z,99.90
2019-04-06T04:27:34.636Z,99.90
2019-04-06T04:30:03.700Z,99.90
2019-04-06T04:32:32.176Z,99.90
2019-04-06T04:35:00.797Z,99.90
2019-04-06T04:37:29.311Z,99.90
2019-04-06T04:39:57.887Z,99.90
2019-04-06T04:42:26.264Z,99.90
2019-04-06T04:44:54.804Z,99.90
2019-04-06T04:47:23.219Z,99.90
2019-04-06T04:49:51.600Z,99.90
2019-04-06T04:52:19.988Z,99.90
2019-04-06T04:54:48.365Z,99.90
2019-04-06T04:57:16.767Z,99.90
2019-04-06T04:59:45.322Z,99.90
2019-04-06T05:02:13.746Z,99.90
2019-04-06T05:04:42.179Z,99.90
2019-04-06T05:07:10.572Z,99.90
2019-04-06T05:09:39.015Z,99.90
2019-04-06T05:12:07.404Z,99.90
2019-04-06T05:15:01.180Z,99.90
2019-04-06T05:17:29.838Z,99.90
2019-04-06T05:19:58.352Z,99.90
2019-04-06T05:22:26.906Z,99.90
2019-04-06T05:24:55.276Z,99.90
2019-04-06T05:27:23.710Z,99.90
2019-04-06T05:29:52.118Z,99.90
2019-04-06T05:32:20.507Z,99.90
2019-04-06T05:34:48.891Z,99.90
2019-04-06T05:37:17.281Z,99.90
2019-04-06T05:39:45.672Z,99.90
2019-04-06T05:42:14.056Z,99.90
2019-04-06T05:44:42.440Z,99.90
2019-04-06T05:47:10.885Z,99.90
2019-04-06T05:49:39.271Z,99.90
2019-04-06T05:52:07.655Z,99.90
2019-04-06T05:54:36.035Z,99.90
2019-04-06T05:57:04.670Z,99.90
2019-04-06T05:59:33.062Z,99.90
2019-04-06T06:02:01.477Z,99.90
2019-04-06T06:04:30.008Z,99.90
2019-04-06T06:06:58.403Z,99.90
2019-04-06T06:09:26.790Z,99.90
2019-04-06T06:11:55.924Z,99.90
2019-04-06T06:14:24.444Z,99.90
2019-04-06T06:16:52.839Z,99.90
2019-04-06T06:19:21.227Z,99.90
2019-04-06T06:21:49.653Z,99.90
2019-04-06T06:24:18.073Z,99.90
2019-04-06T06:26:46.632Z,99.90
2019-04-06T06:29:15.048Z,99.90
2019-04-06T06:31:43.427Z,99.90
2019-04-06T06:34:11.818Z,99.90
2019-04-06T06:36:40.190Z,99.90
2019-04-06T06:39:09.003Z,99.90
2019-04-06T06:41:37.489Z,99.90
2019-04-06T06:44:05.858Z,99.90
2019-04-06T06:46:34.391Z,99.90
2019-04-06T06:49:02.801Z,99.90
2019-04-06T06:51:31.192Z,99.90
2019-04-06T06:53:59.603Z,99.90
2019-04-06T06:56:27.976Z,99.90
2019-04-06T06:58:56.355Z,99.90
2019-04-06T07:01:24.747Z,99.90
2019-04-06T07:03:53.395Z,99.90
2019-04-06T07:06:21.797Z,99.90
2019-04-06T07:08:50.358Z,99.90
2019-04-06T07:11:18.748Z,99.10
2019-04-06T07:13:47.205Z,98.50
2019-04-06T07:16:15.599Z,97.90
2019-04-06T07:18:43.988Z,97.70
2019-04-06T07:21:12.383Z,97.00
2019-04-06T07:23:40.818Z,96.70
2019-04-06T07:26:09.240Z,96.50
2019-04-06T07:28:39.161Z,96.20
2019-04-06T07:31:07.904Z,95.80
2019-04-06T07:33:36.288Z,94.20
2019-04-06T07:36:04.811Z,94.20
2019-04-06T07:38:33.211Z,93.60
2019-04-06T07:41:01.613Z,94.00
2019-04-06T07:43:30.102Z,93.90
2019-04-06T07:45:58.528Z,94.10
2019-04-06T07:48:26.923Z,93.90
2019-04-06T07:50:55.316Z,93.60
2019-04-06T07:53:23.708Z,93.00
2019-04-06T07:55:52.087Z,93.50
2019-04-06T07:58:20.481Z,94.20
2019-04-06T08:00:48.876Z,93.50
2019-04-06T08:03:17.255Z,92.60
2019-04-06T08:05:45.639Z,92.30
2019-04-06T08:08:14.031Z,91.10
2019-04-06T08:10:42.651Z,90.10
2019-04-06T08:13:11.082Z,86.70
2019-04-06T08:15:39.472Z,84.50
2019-04-06T08:18:07.876Z,86.00
2019-04-06T08:20:36.265Z,84.90
2019-04-06T08:23:04.657Z,81.50
2019-04-06T08:25:33.039Z,79.80
2019-04-06T08:28:01.446Z,76.10
2019-04-06T08:30:29.820Z,75.70
2019-04-06T08:32:58.252Z,71.90
2019-04-06T08:35:26.924Z,69.80
2019-04-06T08:37:55.312Z,70.10
2019-04-06T08:40:23.783Z,68.80
2019-04-06T08:42:52.172Z,62.00
2019-04-06T08:45:20.540Z,60.50
2019-04-06T08:47:48.944Z,58.80
2019-04-06T08:50:17.398Z,57.10
2019-04-06T08:52:45.779Z,52.20
2019-04-06T08:55:14.188Z,53.40
2019-04-06T08:57:42.567Z,47.80
2019-04-06T09:00:11.251Z,51.20
2019-04-06T09:02:39.764Z,56.10
2019-04-06T09:05:09.060Z,53.10
2019-04-06T09:07:37.511Z,50.80
2019-04-06T09:10:07.043Z,51.30
2019-04-06T09:12:35.427Z,47.60
2019-04-06T09:15:05.851Z,43.60
2019-04-06T09:17:34.248Z,46.40
2019-04-06T09:20:02.779Z,47.30
2019-04-06T09:22:31.162Z,43.00
2019-04-06T09:24:59.877Z,41.70
2019-04-06T09:27:28.513Z,41.60
2019-04-06T09:29:57.020Z,42.80
2019-04-06T09:32:25.416Z,43.20
2019-04-06T09:34:53.866Z,43.10
2019-04-06T09:37:22.571Z,43.30
2019-04-06T09:39:50.968Z,45.30
2019-04-06T09:42:19.471Z,49.90
2019-04-06T09:44:55.043Z,49.50
2019-04-06T09:47:25.067Z,50.10
2019-04-06T09:50:04.358Z,48.90
2019-04-06T09:52:49.666Z,54.70
2019-04-06T09:55:19.700Z,53.20
2019-04-06T09:57:55.554Z,50.00
2019-04-06T10:00:41.811Z,47.90
2019-04-06T10:03:11.836Z,47.00
2019-04-06T10:05:54.127Z,46.80
2019-04-06T10:08:26.831Z,48.90
2019-04-06T10:11:09.015Z,50.80
2019-04-06T10:13:41.737Z,47.90
2019-04-06T10:16:14.650Z,46.20
2019-04-06T10:18:53.660Z,48.80
2019-04-06T10:21:23.712Z,48.40
2019-04-06T10:24:02.962Z,44.80
2019-04-06T10:26:33.349Z,44.50
2019-04-06T10:29:19.915Z,45.60
2019-04-06T10:32:02.283Z,43.90
2019-04-06T10:34:50.725Z,42.70
2019-04-06T10:37:26.785Z,45.20
2019-04-06T10:40:13.233Z,44.30
2019-04-06T10:42:43.279Z,40.40
2019-04-06T10:45:28.330Z,41.80
2019-04-06T10:48:01.258Z,41.50
2019-04-06T10:50:43.565Z,41.30
2019-04-06T10:53:29.739Z,42.10
2019-04-06T10:56:02.813Z,41.10
2019-04-06T10:58:41.568Z,38.80
2019-04-06T11:01:28.263Z,38.20
2019-04-06T11:04:00.993Z,39.80
2019-04-06T11:06:43.015Z,40.00
2019-04-06T11:09:18.995Z,39.70
2019-04-06T11:11:58.721Z,39.40
2019-04-06T11:14:28.957Z,39.50
2019-04-06T11:16:58.945Z,39.10
2019-04-06T11:19:34.922Z,38.60
2019-04-06T11:22:05.008Z,38.40
2019-04-06T11:24:51.510Z,38.00
2019-04-06T11:27:34.011Z,38.70
2019-04-06T11:30:13.472Z,40.80
2019-04-06T11:32:55.332Z,39.70
2019-04-06T11:35:25.374Z,41.70
2019-04-06T11:37:58.383Z,40.00
2019-04-06T11:40:34.861Z,39.30
2019-04-06T11:43:21.255Z,39.00
2019-04-06T11:45:51.292Z,37.40
2019-04-06T11:48:26.811Z,39.30
2019-04-06T11:51:13.335Z,36.90
2019-04-06T11:54:00.075Z,36.80
2019-04-06T11:56:36.456Z,38.00
2019-04-06T11:59:12.498Z,36.20
2019-04-06T12:01:48.263Z,35.70
2019-04-06T12:04:30.393Z,35.20
2019-04-06T12:07:00.927Z,36.10
2019-04-06T12:09:31.843Z,35.40
2019-04-06T12:12:10.684Z,35.30
2019-04-06T12:14:40.748Z,36.20
2019-04-06T12:17:23.177Z,35.50
2019-04-06T12:19:53.316Z,35.50
2019-04-06T12:22:29.287Z,36.20
2019-04-06T12:25:05.507Z,34.90
2019-04-06T12:27:35.556Z,33.00
2019-04-06T12:30:23.363Z,32.70
2019-04-06T12:33:02.336Z,33.10
2019-04-06T12:35:35.343Z,33.40
2019-04-06T12:38:25.409Z,32.00
2019-04-06T12:41:07.596Z,31.90
2019-04-06T12:43:49.737Z,33.20
2019-04-06T12:46:22.174Z,32.30
2019-04-06T12:49:08.403Z,31.70
2019-04-06T12:51:54.997Z,32.40
2019-04-06T12:54:25.116Z,31.90
2019-04-06T12:56:58.200Z,32.60
2019-04-06T12:59:37.994Z,31.00
2019-04-06T13:02:16.856Z,29.40
2019-04-06T13:04:46.893Z,29.50
2019-04-06T13:07:33.216Z,29.80
2019-04-06T13:10:21.965Z,32.00
2019-04-06T13:13:04.439Z,30.10
2019-04-06T13:15:37.326Z,29.90
2019-04-06T13:18:24.256Z,29.90
2019-04-06T13:21:10.733Z,29.60
2019-04-06T13:23:52.905Z,29.00
2019-04-06T13:26:37.698Z,28.80
2019-04-06T13:29:16.561Z,28.50
2019-04-06T13:31:49.698Z,28.40
2019-04-06T13:34:28.783Z,28.70
2019-04-06T13:37:04.560Z,28.70
2019-04-06T13:39:40.846Z,28.40
2019-04-06T13:42:11.126Z,29.60
2019-04-06T13:44:41.325Z,30.00
2019-04-06T13:47:27.024Z,30.00
2019-04-06T13:49:59.848Z,29.50
2019-04-06T13:52:29.880Z,30.50
2019-04-06T13:55:05.620Z,29.50
2019-04-06T13:57:44.465Z,29.40
2019-04-06T14:00:27.140Z,30.30
2019-04-06T14:03:13.816Z,32.00
2019-04-06T14:05:43.835Z,31.70
2019-04-06T14:08:30.504Z,31.20
2019-04-06T14:11:17.552Z,30.80
2019-04-06T14:13:59.627Z,30.90
2019-04-06T14:16:41.288Z,32.60
2019-04-06T14:19:27.456Z,32.20
2019-04-06T14:22:12.760Z,32.50
2019-04-06T14:24:46.134Z,32.80
2019-04-06T14:27:16.242Z,31.00
2019-04-06T14:29:49.067Z,33.50
2019-04-06T14:32:35.302Z,32.50
2019-04-06T14:35:07.067Z,33.30
2019-04-06T14:37:53.603Z,33.30
2019-04-06T14:40:23.663Z,33.00
2019-04-06T14:43:09.902Z,33.40
2019-04-06T14:45:43.345Z,33.30
2019-04-06T14:48:19.679Z,34.00
2019-04-06T14:51:06.259Z,34.20
2019-04-06T14:53:36.309Z,35.70
2019-04-06T14:56:18.924Z,36.50
2019-04-06T14:58:51.705Z,36.30
2019-04-06T15:01:38.362Z,36.90
2019-04-06T15:04:11.684Z,35.90
2019-04-06T15:07:09.444Z,37.10
2019-04-06T15:09:31.584Z,37.30
2019-04-06T15:12:04.312Z,37.10
2019-04-06T15:14:37.223Z,37.20
2019-04-06T15:17:22.358Z,37.80
2019-04-06T15:20:08.928Z,38.60
2019-04-06T15:22:39.001Z,40.20
2019-04-06T15:25:15.130Z,39.70
2019-04-06T15:27:48.093Z,39.80
2019-04-06T15:30:30.221Z,39.50
2019-04-06T15:33:03.195Z,40.10
2019-04-06T15:35:36.230Z,41.30
2019-04-06T15:38:22.670Z,42.60
2019-04-06T15:40:52.725Z,44.60
2019-04-06T15:43:34.953Z,45.30
2019-04-06T15:46:10.797Z,45.70
2019-04-06T15:48:59.023Z,47.80
2019-04-06T15:51:41.448Z,47.50
2019-04-06T15:54:17.718Z,50.20
2019-04-06T15:56:47.803Z,52.60
2019-04-06T15:59:29.907Z,54.70
2019-04-06T16:02:02.402Z,57.10
2019-04-06T16:04:49.723Z,58.90
2019-04-06T16:07:36.201Z,58.30
2019-04-06T16:10:13.575Z,60.30
2019-04-06T16:12:43.611Z,62.20
2019-04-06T16:15:19.515Z,64.70
2019-04-06T16:18:06.191Z,67.10
2019-04-06T16:20:36.247Z,68.80
2019-04-06T16:23:07.635Z,68.60
2019-04-06T16:25:43.996Z,69.40
2019-04-06T16:28:17.292Z,69.70
2019-04-06T16:30:47.506Z,69.90
2019-04-06T16:33:33.805Z,70.10
2019-04-06T16:36:10.370Z,71.00
2019-04-06T16:38:52.711Z,73.00
2019-04-06T16:41:28.724Z,74.40
2019-04-06T16:44:01.560Z,76.20
2019-04-06T16:46:31.609Z,75.40
2019-04-06T16:49:01.998Z,76.40
2019-04-06T16:51:32.075Z,77.70
2019-04-06T16:54:02.107Z,77.90
2019-04-06T16:56:47.432Z,79.00
2019-04-06T16:59:35.472Z,79.10
2019-04-06T17:02:23.540Z,80.60
2019-04-06T17:05:02.552Z,81.70
2019-04-06T17:07:51.466Z,82.80
2019-04-06T17:10:38.149Z,83.50
2019-04-06T17:13:20.368Z,84.40
2019-04-06T17:15:50.409Z,84.30
2019-04-06T17:18:20.875Z,84.80
2019-04-06T17:21:07.295Z,85.20
2019-04-06T17:23:37.403Z,84.70
2019-04-06T17:26:07.431Z,85.20
2019-04-06T17:28:37.712Z,85.50
2019-04-06T17:31:20.065Z,86.00
2019-04-06T17:33:53.193Z,86.60
2019-04-06T17:36:26.197Z,86.70
2019-04-06T17:39:02.753Z,87.10
2019-04-06T17:41:48.803Z,87.30
2019-04-06T17:44:22.217Z,87.60
2019-04-06T17:46:58.536Z,87.90
2019-04-06T17:49:31.739Z,88.50
2019-04-06T17:52:01.910Z,89.00
2019-04-06T17:54:34.949Z,89.50
2019-04-06T17:57:04.974Z,89.60
2019-04-06T17:59:37.423Z,90.10
2019-04-06T18:02:10.256Z,90.30
2019-04-06T18:04:46.214Z,90.70
2019-04-06T18:07:32.314Z,91.00
2019-04-06T18:10:17.616Z,91.30
2019-04-06T18:12:50.900Z,91.40
2019-04-06T18:15:19.296Z,91.50
2019-04-06T18:17:48.168Z,91.70
2019-04-06T18:20:16.635Z,91.80
2019-04-06T18:22:45.033Z,91.80
2019-04-06T18:25:13.820Z,92.20
2019-04-06T18:27:42.263Z,92.40
2019-04-06T18:30:11.339Z,92.70
2019-04-06T18:32:44.896Z,93.20
2019-04-06T18:35:13.385Z,93.60
2019-04-06T18:37:43.419Z,93.80
2019-04-06T18:40:13.692Z,94.20
2019-04-06T18:42:42.073Z,94.50
2019-04-06T18:45:10.735Z,94.70
2019-04-06T18:47:39.097Z,94.90
2019-04-06T18:50:07.987Z,95.00
2019-04-06T18:52:36.626Z,95.40
2019-04-06T18:55:06.480Z,95.50
2019-04-06T18:57:34.999Z,95.60
2019-04-06T19:00:05.501Z,96.00
2019-04-06T19:02:33.886Z,96.30
2019-04-06T19:05:02.413Z,96.50
2019-04-06T19:07:30.840Z,97.20
2019-04-06T19:09:59.241Z,97.00
2019-04-06T19:12:27.627Z,97.20
2019-04-06T19:14:56.493Z,97.40
2019-04-06T19:17:24.987Z,97.60
2019-04-06T19:19:53.854Z,97.90
2019-04-06T19:22:22.807Z,97.80
2019-04-06T19:24:51.322Z,97.90
2019-04-06T19:27:19.713Z,98.00
2019-04-06T19:29:48.599Z,98.10
2019-04-06T19:32:17.067Z,98.30
2019-04-06T19:34:45.487Z,98.30
2019-04-06T19:37:13.848Z,98.30
2019-04-06T19:39:42.282Z,98.40
2019-04-06T19:42:10.944Z,98.50
2019-04-06T19:44:39.323Z,98.50
2019-04-06T19:47:07.703Z,98.50
2019-04-06T19:49:36.095Z,98.70
2019-04-06T19:52:04.487Z,98.70
2019-04-06T19:54:33.399Z,98.80
2019-04-06T19:57:01.823Z,98.90
2019-04-06T19:59:30.217Z,98.70
2019-04-06T20:01:58.700Z,98.70
2019-04-06T20:04:27.175Z,98.80
2019-04-06T20:06:55.898Z,98.90
2019-04-06T20:09:24.409Z,98.90
2019-04-06T20:12:04.355Z,98.90
2019-04-06T20:14:22.916Z,98.90
2019-04-06T20:16:51.341Z,98.80
2019-04-06T20:19:21.913Z,98.80
2019-04-06T20:21:49.951Z,99.00
2019-04-06T20:24:18.792Z,98.90
2019-04-06T20:26:47.518Z,99.00
2019-04-06T20:29:16.047Z,98.90
2019-04-06T20:31:44.688Z,98.80
2019-04-06T20:34:13.204Z,98.60
2019-04-06T20:36:41.945Z,98.60
2019-04-06T20:39:10.467Z,98.60
2019-04-06T20:41:38.862Z,98.60
2019-04-06T20:44:07.662Z,98.70
2019-04-06T20:46:36.120Z,98.80
2019-04-06T20:49:04.509Z,99.20
2019-04-06T20:51:33.301Z,99.40
2019-04-06T20:54:01.770Z,99.40
2019-04-06T20:56:30.168Z,99.50
2019-04-06T20:58:58.668Z,99.80
2019-04-06T21:01:27.662Z,99.90
2019-04-06T21:04:01.752Z,99.90
2019-04-06T21:06:26.291Z,99.90
2019-04-06T21:08:54.684Z,99.90
2019-04-06T21:11:23.298Z,99.90
2019-04-06T21:13:51.736Z,99.90
2019-04-06T21:16:20.575Z,99.80
2019-04-06T21:18:49.114Z,99.90
2019-04-06T21:21:17.673Z,99.80
2019-04-06T21:23:46.304Z,99.70
2019-04-06T21:26:15.203Z,99.70
2019-04-06T21:28:43.587Z,99.60
2019-04-06T21:31:12.155Z,99.50
2019-04-06T21:33:41.068Z,99.30
2019-04-06T21:36:09.537Z,99.30
2019-04-06T21:38:37.944Z,99.20
2019-04-06T21:41:06.961Z,99.30
2019-04-06T21:43:35.446Z,99.60
2019-04-06T21:46:03.954Z,99.40
2019-04-06T21:48:32.442Z,99.10
2019-04-06T21:51:00.816Z,98.60
2019-04-06T21:53:29.217Z,98.30
2019-04-06T21:56:03.237Z,98.40
2019-04-06T21:58:27.707Z,98.80
2019-04-06T22:00:58.007Z,99.10
2019-04-06T22:03:26.826Z,99.20
2019-04-06T22:05:55.815Z,99.30
2019-04-06T22:08:24.899Z,99.30
2019-04-06T22:10:53.949Z,99.50
2019-04-06T22:13:22.452Z,99.60
2019-04-06T22:15:50.845Z,99.90
2019-04-06T22:18:19.355Z,99.90
2019-04-06T22:20:47.703Z,99.90
2019-04-06T22:23:16.076Z,99.90
2019-04-06T22:25:44.870Z,99.90
2019-04-06T22:28:13.328Z,99.90
2019-04-06T22:30:41.775Z,99.90
2019-04-06T22:33:10.176Z,99.90
2019-04-06T22:35:38.962Z,99.90
2019-04-06T22:38:08.021Z,99.90
2019-04-06T22:40:37.000Z,99.90
2019-04-06T22:43:05.432Z,99.90
2019-04-06T22:45:34.686Z,99.90
2019-04-06T22:48:03.546Z,99.90
2019-04-06T22:50:32.631Z,99.90
2019-04-06T22:53:01.184Z,99.90
2019-04-06T22:55:29.819Z,99.90
2019-04-06T22:57:58.220Z,99.90
2019-04-06T23:00:31.451Z,99.90
2019-04-06T23:03:14.689Z,99.90
2019-04-06T23:06:01.279Z,99.90
2019-04-06T23:08:29.719Z,99.90
2019-04-06T23:10:58.130Z,99.90
2019-04-06T23:13:26.898Z,99.90
2019-04-06T23:15:55.423Z,99.90
2019-04-06T23:18:23.804Z,99.90
2019-04-06T23:20:52.853Z,99.90
2019-04-06T23:23:21.367Z,99.90
2019-04-06T23:25:49.751Z,99.90
2019-04-06T23:28:18.163Z,99.90
2019-04-06T23:30:46.598Z,99.90
2019-04-06T23:33:14.978Z,99.90
2019-04-06T23:35:43.364Z,99.90
2019-04-06T23:38:12.293Z,99.90
2019-04-06T23:40:40.797Z,99.90
2019-04-06T23:43:09.675Z,99.90
2019-04-06T23:45:38.145Z,99.90
2019-04-06T23:48:25.903Z,99.90
2019-04-06T23:50:54.333Z,99.90
2019-04-06T23:53:23.128Z,99.90
2019-04-06T23:55:51.825Z,99.90
2019-04-06T23:58:20.212Z,99.90
